Terminal Aerodrome Forecast
Issued by NWS

Home | Current Version | Previous Version | Text Only | Print | Product List | Glossary Off
Versions: 1 2 3 4 5 6 7 8 9 10 11 12 13

000
FTUS43 KICT 281120
TAFSLN
TAF
KSLN 281120Z 2812/2912 20010KT P6SM SKC
     FM281500 24010KT P6SM SCT080
     FM281900 35012KT P6SM SCT250
     FM290200 VRB05KT P6SM SKC=

USA.gov is the U.S. government's official web portal to all federal, state and local government web resources and services.